Time;durP1;ratioP1;P1;durP2;ratioP2;P2;SDS_P1;SDS_P2;PMS_P1;PMS_P2;Temp;Humidity;BMP_temperature;BMP_pressure;BME280_temperature;BME280_humidity;BME280_pressure;Samples;Min_cycle;Max_cycle;Signal;HPM_P1;HPM_P2
2022/03/26 00:02:05;;;;;;;168.07;94.47;;;;;;;;;;5010438;28;20441;-61
2022/03/26 00:04:32;;;;;;;174.65;98.30;;;;;;;;;;5011051;28;20939;-60
2022/03/26 00:06:58;;;;;;;164.32;96.32;;;;;;;;;;5010650;28;20220;-61
2022/03/26 00:09:24;;;;;;;169.23;94.30;;;;;;;;;;5010652;28;20184;-60
2022/03/26 00:11:50;;;;;;;158.03;92.10;;;;;;;;;;5009763;28;20455;-61
2022/03/26 00:14:15;;;;;;;174.57;91.30;;;;;;;;;;5010501;28;20931;-61
2022/03/26 00:16:41;;;;;;;172.87;90.83;;;;;;;;;;5010506;28;20530;-61
2022/03/26 00:19:07;;;;;;;155.43;88.13;;;;;;;;;;5010041;28;20475;-61
2022/03/26 00:21:33;;;;;;;156.70;90.03;;;;;;;;;;5009568;28;20448;-61
2022/03/26 00:23:59;;;;;;;173.30;91.97;;;;;;;;;;5010450;28;20415;-61
2022/03/26 00:26:25;;;;;;;161.55;89.85;;;;;;;;;;5010624;28;20181;-61
2022/03/26 00:28:52;;;;;;;180.05;92.75;;;;;;;;;;5010160;28;20244;-61
2022/03/26 00:31:17;;;;;;;171.70;90.63;;;;;;;;;;5010148;28;20628;-59
2022/03/26 00:33:43;;;;;;;158.33;89.93;;;;;;;;;;5010085;28;20239;-61
2022/03/26 00:36:10;;;;;;;156.90;88.67;;;;;;;;;;5010113;28;20506;-61
2022/03/26 00:38:35;;;;;;;153.85;85.60;;;;;;;;;;5009190;28;20431;-61
2022/03/26 00:41:01;;;;;;;154.37;89.70;;;;;;;;;;5009517;28;20197;-61
2022/03/26 00:43:27;;;;;;;164.87;90.37;;;;;;;;;;5010130;28;20416;-60
2022/03/26 00:45:54;;;;;;;152.00;84.20;;;;;;;;;;5010251;28;20784;-59
2022/03/26 00:48:20;;;;;;;160.90;91.35;;;;;;;;;;5010407;28;20511;-62
2022/03/26 00:50:46;;;;;;;143.90;85.40;;;;;;;;;;5013795;28;20292;-61
2022/03/26 00:53:12;;;;;;;137.52;82.50;;;;;;;;;;5013749;28;20428;-61
2022/03/26 00:55:38;;;;;;;136.47;80.67;;;;;;;;;;5013849;28;20292;-61
2022/03/26 00:58:04;;;;;;;135.15;78.82;;;;;;;;;;5013910;28;20497;-61
2022/03/26 01:00:30;;;;;;;132.82;79.47;;;;;;;;;;5013608;28;20228;-61
2022/03/26 01:02:57;;;;;;;133.30;79.50;;;;;;;;;;5013236;28;20726;-61
2022/03/26 01:05:23;;;;;;;133.40;76.32;;;;;;;;;;5013652;28;20431;-61
2022/03/26 01:07:50;;;;;;;145.70;82.13;;;;;;;;;;5014330;28;20174;-61
2022/03/26 01:10:16;;;;;;;134.93;82.38;;;;;;;;;;5013413;28;20535;-60
2022/03/26 01:12:42;;;;;;;136.87;80.70;;;;;;;;;;5013788;28;20280;-60
2022/03/26 01:15:08;;;;;;;141.37;84.90;;;;;;;;;;5013661;28;20412;-62
2022/03/26 01:17:34;;;;;;;123.80;80.15;;;;;;;;;;5013715;28;21037;-59
2022/03/26 01:20:01;;;;;;;126.70;77.73;;;;;;;;;;5013517;28;20182;-61
2022/03/26 01:22:27;;;;;;;131.70;76.90;;;;;;;;;;5013513;28;20900;-61
2022/03/26 01:24:52;;;;;;;135.90;80.23;;;;;;;;;;5013699;28;20185;-61
2022/03/26 01:27:18;;;;;;;139.33;77.20;;;;;;;;;;5013448;28;20931;-61
2022/03/26 01:29:44;;;;;;;114.10;72.90;;;;;;;;;;5013503;28;20831;-61
2022/03/26 01:32:11;;;;;;;142.75;78.32;;;;;;;;;;5013351;28;20496;-60
2022/03/26 01:34:37;;;;;;;139.48;74.15;;;;;;;;;;5013509;28;20227;-61
2022/03/26 01:37:03;;;;;;;134.68;75.32;;;;;;;;;;5013302;28;20720;-61
2022/03/26 01:39:29;;;;;;;151.18;79.53;;;;;;;;;;5013201;28;20591;-61
2022/03/26 01:42:00;;;;;;;141.18;76.93;;;;;;;;;;5012904;28;20194;-61
2022/03/26 01:44:26;;;;;;;148.05;77.57;;;;;;;;;;5011155;28;20266;-61
2022/03/26 01:46:54;;;;;;;146.37;74.33;;;;;;;;;;5013274;28;20765;-61
2022/03/26 01:49:20;;;;;;;136.57;74.97;;;;;;;;;;5013037;28;20427;-61
2022/03/26 01:51:47;;;;;;;143.02;74.57;;;;;;;;;;5012682;28;20201;-60
2022/03/26 01:54:13;;;;;;;139.00;76.75;;;;;;;;;;5012944;28;20568;-61
2022/03/26 01:56:40;;;;;;;151.48;78.55;;;;;;;;;;5010722;28;20212;-61
2022/03/26 01:59:06;;;;;;;154.70;80.53;;;;;;;;;;5012911;28;20182;-59
2022/03/26 02:01:33;;;;;;;151.20;78.45;;;;;;;;;;5011052;28;20267;-62
2022/03/26 02:03:59;;;;;;;149.90;77.53;;;;;;;;;;5012793;28;20178;-61
2022/03/26 02:06:29;;;;;;;153.60;77.43;;;;;;;;;;5012955;28;20182;-61
2022/03/26 02:08:55;;;;;;;148.18;76.50;;;;;;;;;;5013851;28;20183;-61
2022/03/26 02:11:21;;;;;;;132.95;73.32;;;;;;;;;;5013077;28;20213;-62
2022/03/26 02:13:51;;;;;;;159.20;77.47;;;;;;;;;;5013483;28;20177;-61
2022/03/26 02:16:17;;;;;;;143.02;73.28;;;;;;;;;;5013938;28;21052;-61
2022/03/26 02:18:43;;;;;;;109.00;67.72;;;;;;;;;;5013679;28;20204;-59
2022/03/26 02:21:10;;;;;;;123.15;70.63;;;;;;;;;;5013175;28;20197;-61
2022/03/26 02:23:36;;;;;;;103.47;66.70;;;;;;;;;;5013428;28;20519;-61
2022/03/26 02:26:02;;;;;;;145.07;75.53;;;;;;;;;;5013046;28;20185;-59
2022/03/26 02:28:28;;;;;;;144.83;74.63;;;;;;;;;;5013498;28;20478;-61
2022/03/26 02:30:53;;;;;;;130.90;72.83;;;;;;;;;;5013054;28;20482;-61
2022/03/26 02:33:19;;;;;;;130.40;72.27;;;;;;;;;;5013295;28;20416;-61
2022/03/26 02:35:45;;;;;;;135.90;73.13;;;;;;;;;;5013311;28;20457;-61
2022/03/26 02:38:11;;;;;;;135.07;72.72;;;;;;;;;;5012831;28;20748;-61
2022/03/26 02:40:37;;;;;;;130.23;70.28;;;;;;;;;;5012834;28;20196;-60
2022/03/26 02:43:06;;;;;;;132.50;71.47;;;;;;;;;;5013235;28;20180;-61
2022/03/26 02:45:32;;;;;;;129.27;71.07;;;;;;;;;;5013129;28;20403;-61
2022/03/26 02:47:58;;;;;;;133.23;73.15;;;;;;;;;;5013083;28;20185;-60
2022/03/26 02:50:24;;;;;;;131.95;77.43;;;;;;;;;;5012788;28;20196;-61
2022/03/26 02:52:50;;;;;;;115.53;66.72;;;;;;;;;;5013063;28;20687;-61
2022/03/26 02:55:17;;;;;;;138.40;68.90;;;;;;;;;;5012873;28;20589;-61
2022/03/26 02:57:46;;;;;;;141.55;71.97;;;;;;;;;;5012929;28;20217;-61
2022/03/26 03:00:13;;;;;;;153.07;77.00;;;;;;;;;;5012575;28;20189;-61
2022/03/26 03:02:39;;;;;;;142.60;69.47;;;;;;;;;;5012824;28;20292;-61
2022/03/26 03:05:06;;;;;;;134.65;69.40;;;;;;;;;;5012923;28;20173;-61
2022/03/26 03:07:32;;;;;;;136.07;68.75;;;;;;;;;;5012793;28;20180;-61
2022/03/26 03:09:58;;;;;;;143.15;72.80;;;;;;;;;;5012321;28;20180;-61
2022/03/26 03:12:28;;;;;;;140.13;71.15;;;;;;;;;;5012119;28;20557;-61
2022/03/26 03:14:54;;;;;;;134.02;69.85;;;;;;;;;;5012675;28;20264;-61
2022/03/26 03:17:20;;;;;;;98.10;61.60;;;;;;;;;;5012535;28;20284;-61
2022/03/26 03:19:46;;;;;;;99.70;63.38;;;;;;;;;;5012524;28;20400;-61
2022/03/26 03:22:12;;;;;;;139.20;69.38;;;;;;;;;;5012234;28;20539;-61
2022/03/26 03:24:38;;;;;;;139.80;72.35;;;;;;;;;;5012422;28;20184;-61
2022/03/26 03:27:05;;;;;;;133.27;71.80;;;;;;;;;;5012432;28;20176;-61
2022/03/26 03:29:31;;;;;;;141.85;71.45;;;;;;;;;;5012349;28;20183;-60
2022/03/26 03:31:57;;;;;;;142.70;71.27;;;;;;;;;;5012014;28;20201;-60
2022/03/26 03:34:24;;;;;;;135.93;69.47;;;;;;;;;;5012364;28;20505;-61
2022/03/26 03:36:49;;;;;;;136.50;67.00;;;;;;;;;;5012075;28;20240;-61
2022/03/26 03:39:15;;;;;;;135.90;67.80;;;;;;;;;;5012195;28;20640;-62
2022/03/26 03:41:41;;;;;;;143.50;70.07;;;;;;;;;;5011868;28;20945;-61
2022/03/26 03:44:08;;;;;;;143.57;71.80;;;;;;;;;;5012041;28;20404;-60
2022/03/26 03:46:34;;;;;;;115.07;63.28;;;;;;;;;;5011665;28;20188;-61
2022/03/26 03:49:01;;;;;;;137.00;68.85;;;;;;;;;;5011742;28;20287;-61
2022/03/26 03:51:27;;;;;;;137.70;65.65;;;;;;;;;;5011666;28;20545;-61
2022/03/26 03:53:53;;;;;;;137.13;68.25;;;;;;;;;;5011955;28;20196;-61
2022/03/26 03:56:19;;;;;;;138.77;68.83;;;;;;;;;;5011673;28;20208;-61
2022/03/26 03:58:45;;;;;;;131.40;66.13;;;;;;;;;;5011796;28;20424;-61
2022/03/26 04:01:11;;;;;;;146.32;67.15;;;;;;;;;;4991924;28;20434;-61
2022/03/26 04:03:37;;;;;;;144.67;66.40;;;;;;;;;;4992276;28;20181;-61
2022/03/26 04:06:03;;;;;;;149.90;69.10;;;;;;;;;;4992114;28;20420;-61
2022/03/26 04:08:29;;;;;;;139.52;65.82;;;;;;;;;;4992199;28;20801;-60
2022/03/26 04:10:55;;;;;;;151.80;70.17;;;;;;;;;;4991640;28;20218;-61
2022/03/26 04:13:21;;;;;;;147.40;69.80;;;;;;;;;;4993252;28;20417;-60
2022/03/26 04:15:47;;;;;;;141.45;64.35;;;;;;;;;;4992036;28;21071;-61
2022/03/26 04:18:13;;;;;;;140.63;65.23;;;;;;;;;;4992049;28;20174;-61
2022/03/26 04:20:40;;;;;;;142.00;64.83;;;;;;;;;;4991666;28;20483;-61
2022/03/26 04:23:06;;;;;;;147.45;68.25;;;;;;;;;;4991324;28;20422;-61
2022/03/26 04:25:32;;;;;;;159.10;70.50;;;;;;;;;;4991996;28;20254;-61
2022/03/26 04:27:58;;;;;;;153.07;69.25;;;;;;;;;;4991896;28;20467;-61
2022/03/26 04:30:24;;;;;;;154.35;71.10;;;;;;;;;;4998010;28;20201;-61
2022/03/26 04:32:50;;;;;;;143.57;64.97;;;;;;;;;;5011455;28;20662;-61
2022/03/26 04:35:16;;;;;;;142.13;64.43;;;;;;;;;;5011426;28;20473;-61
2022/03/26 04:37:42;;;;;;;148.70;67.78;;;;;;;;;;5011370;28;20291;-61
2022/03/26 04:40:11;;;;;;;152.02;71.13;;;;;;;;;;5010810;28;20201;-60
2022/03/26 04:42:37;;;;;;;152.38;69.22;;;;;;;;;;5011161;28;20184;-61
2022/03/26 04:45:03;;;;;;;142.40;66.88;;;;;;;;;;5011350;28;20249;-61
2022/03/26 04:47:29;;;;;;;152.57;67.70;;;;;;;;;;5015259;28;20180;-57
2022/03/26 04:49:55;;;;;;;152.27;66.27;;;;;;;;;;5006623;28;20707;-61
2022/03/26 04:52:21;;;;;;;130.17;63.07;;;;;;;;;;5024741;28;20423;-60
2022/03/26 04:54:48;;;;;;;135.70;63.00;;;;;;;;;;5011232;28;20794;-58
2022/03/26 04:57:15;;;;;;;150.23;67.70;;;;;;;;;;5010630;28;20459;-58
2022/03/26 04:59:41;;;;;;;148.35;65.88;;;;;;;;;;5010890;28;20258;-61
2022/03/26 05:02:07;;;;;;;146.50;65.67;;;;;;;;;;5010228;28;20695;-61
2022/03/26 05:04:33;;;;;;;136.97;64.67;;;;;;;;;;5011213;28;20423;-61
2022/03/26 05:06:59;;;;;;;143.17;66.13;;;;;;;;;;5011337;28;20407;-61
2022/03/26 05:09:25;;;;;;;144.68;63.03;;;;;;;;;;5010701;28;20503;-61
2022/03/26 05:11:51;;;;;;;148.83;68.47;;;;;;;;;;5010227;28;20301;-61
2022/03/26 05:14:17;;;;;;;146.70;66.35;;;;;;;;;;5011006;28;20458;-61
2022/03/26 05:16:44;;;;;;;138.20;65.30;;;;;;;;;;5010953;28;20204;-60
2022/03/26 05:19:10;;;;;;;138.32;68.28;;;;;;;;;;5010905;28;20416;-61
2022/03/26 05:21:37;;;;;;;132.70;65.30;;;;;;;;;;5010780;28;20190;-61
2022/03/26 05:24:03;;;;;;;133.82;65.10;;;;;;;;;;5011017;28;20407;-60
2022/03/26 05:26:29;;;;;;;137.95;63.33;;;;;;;;;;5010629;28;20192;-61
2022/03/26 05:28:55;;;;;;;154.30;69.50;;;;;;;;;;5010166;28;20180;-60
2022/03/26 05:31:21;;;;;;;150.43;67.40;;;;;;;;;;5009696;28;20200;-59
2022/03/26 05:33:47;;;;;;;144.83;65.67;;;;;;;;;;5011027;28;20183;-61
2022/03/26 05:36:13;;;;;;;142.43;66.13;;;;;;;;;;5013915;28;20520;-61
2022/03/26 05:38:39;;;;;;;147.63;64.97;;;;;;;;;;5014163;28;20435;-60
2022/03/26 05:41:05;;;;;;;137.73;62.93;;;;;;;;;;5014065;28;20188;-61
2022/03/26 05:43:31;;;;;;;151.30;71.37;;;;;;;;;;5014243;28;20443;-61
2022/03/26 05:45:57;;;;;;;146.18;66.00;;;;;;;;;;5013623;28;20427;-60
2022/03/26 05:48:23;;;;;;;145.03;63.50;;;;;;;;;;5014108;28;20264;-61
2022/03/26 05:50:49;;;;;;;130.60;62.30;;;;;;;;;;5013034;28;20462;-61
2022/03/26 05:53:15;;;;;;;126.93;60.40;;;;;;;;;;5014193;28;20415;-61
2022/03/26 05:55:41;;;;;;;132.37;61.43;;;;;;;;;;5014085;28;20480;-61
2022/03/26 05:58:07;;;;;;;136.80;62.77;;;;;;;;;;5014064;28;20965;-61
2022/03/26 06:00:33;;;;;;;144.23;67.00;;;;;;;;;;5013597;28;20435;-61
2022/03/26 06:02:59;;;;;;;131.80;61.50;;;;;;;;;;5014053;28;20177;-61
2022/03/26 06:05:25;;;;;;;138.50;62.77;;;;;;;;;;5013943;28;20415;-61
2022/03/26 06:07:51;;;;;;;136.33;63.17;;;;;;;;;;5013913;28;20415;-59
2022/03/26 06:10:16;;;;;;;142.47;66.80;;;;;;;;;;5013401;28;20545;-61
2022/03/26 06:12:42;;;;;;;138.57;63.83;;;;;;;;;;5013870;28;20412;-61
2022/03/26 06:15:09;;;;;;;138.67;64.30;;;;;;;;;;5013709;28;20535;-61
2022/03/26 06:17:35;;;;;;;145.10;66.90;;;;;;;;;;5013635;28;20826;-61
2022/03/26 06:20:01;;;;;;;135.43;63.17;;;;;;;;;;5013533;28;20178;-61
2022/03/26 06:22:27;;;;;;;126.63;60.40;;;;;;;;;;5013453;28;20499;-61
2022/03/26 06:24:53;;;;;;;140.40;63.22;;;;;;;;;;5013588;28;20412;-61
2022/03/26 06:27:19;;;;;;;140.23;63.75;;;;;;;;;;5013633;28;20176;-61
2022/03/26 06:29:45;;;;;;;132.20;60.92;;;;;;;;;;5013337;28;20173;-61
2022/03/26 06:32:11;;;;;;;140.73;67.23;;;;;;;;;;5013269;28;20663;-61
2022/03/26 06:34:37;;;;;;;140.13;67.40;;;;;;;;;;5013399;28;20494;-61
2022/03/26 06:37:03;;;;;;;134.25;63.22;;;;;;;;;;5013247;28;20498;-61
2022/03/26 06:39:30;;;;;;;143.38;65.53;;;;;;;;;;5013352;28;20209;-61
2022/03/26 06:41:56;;;;;;;132.35;63.50;;;;;;;;;;5013012;28;20232;-61
2022/03/26 06:44:22;;;;;;;128.63;61.55;;;;;;;;;;5013092;28;20767;-61
2022/03/26 06:46:48;;;;;;;129.90;63.90;;;;;;;;;;5012183;28;20184;-61
2022/03/26 06:49:14;;;;;;;132.13;69.00;;;;;;;;;;5012907;28;20772;-61
2022/03/26 06:51:40;;;;;;;124.60;62.80;;;;;;;;;;5012366;28;20981;-58
2022/03/26 06:54:06;;;;;;;131.07;65.80;;;;;;;;;;5012464;28;20185;-61
2022/03/26 06:56:33;;;;;;;130.93;65.00;;;;;;;;;;5012601;28;20467;-60
2022/03/26 06:58:59;;;;;;;120.47;66.85;;;;;;;;;;5012908;28;20719;-60
2022/03/26 07:01:25;;;;;;;124.07;64.77;;;;;;;;;;5011883;28;20208;-61
2022/03/26 07:03:52;;;;;;;114.00;62.47;;;;;;;;;;5012411;28;20411;-59
2022/03/26 07:06:19;;;;;;;113.57;62.15;;;;;;;;;;5012954;28;20412;-61
2022/03/26 07:08:45;;;;;;;120.47;65.05;;;;;;;;;;5012868;28;20189;-61
2022/03/26 07:11:11;;;;;;;113.50;62.97;;;;;;;;;;5011488;28;20272;-60
2022/03/26 07:13:37;;;;;;;121.17;66.40;;;;;;;;;;5012074;28;20203;-61
2022/03/26 07:16:03;;;;;;;111.23;64.97;;;;;;;;;;5011342;28;20459;-61
2022/03/26 07:18:29;;;;;;;118.63;67.80;;;;;;;;;;5011731;28;20511;-60
2022/03/26 07:21:00;;;;;;;119.63;65.78;;;;;;;;;;5011143;28;20202;-62
2022/03/26 07:23:26;;;;;;;123.18;69.68;;;;;;;;;;5011013;28;20181;-58
2022/03/26 07:25:52;;;;;;;88.80;66.65;;;;;;;;;;5012093;28;20599;-60
2022/03/26 07:28:18;;;;;;;88.30;61.13;;;;;;;;;;5012408;28;20177;-61
2022/03/26 07:30:44;;;;;;;83.73;63.90;;;;;;;;;;5011731;28;20440;-62
2022/03/26 07:33:10;;;;;;;89.90;64.60;;;;;;;;;;5010381;28;20435;-60
2022/03/26 07:35:36;;;;;;;116.80;73.97;;;;;;;;;;5012012;28;20177;-60
2022/03/26 07:38:02;;;;;;;127.35;76.65;;;;;;;;;;5011298;28;20423;-61
2022/03/26 07:40:29;;;;;;;121.00;75.53;;;;;;;;;;5012252;28;20575;-59
2022/03/26 07:42:55;;;;;;;128.05;79.97;;;;;;;;;;5012207;28;20404;-59
2022/03/26 07:45:22;;;;;;;114.50;76.20;;;;;;;;;;5011908;28;20245;-60
2022/03/26 07:47:48;;;;;;;120.97;79.38;;;;;;;;;;5009610;28;20442;-59
2022/03/26 07:50:14;;;;;;;126.10;88.30;;;;;;;;;;5011533;28;20193;-60
2022/03/26 07:52:42;;;;;;;124.60;82.75;;;;;;;;;;5012189;28;20424;-59
2022/03/26 07:55:08;;;;;;;115.10;79.78;;;;;;;;;;5011966;28;20181;-61
2022/03/26 07:57:34;;;;;;;131.50;85.78;;;;;;;;;;5011683;28;20696;-62
2022/03/26 08:00:00;;;;;;;110.80;82.65;;;;;;;;;;5010794;28;20604;-62
2022/03/26 08:02:26;;;;;;;106.35;85.72;;;;;;;;;;5011821;28;20174;-61
2022/03/26 08:04:52;;;;;;;107.60;86.75;;;;;;;;;;5012042;28;20180;-60
2022/03/26 08:07:21;;;;;;;112.30;90.95;;;;;;;;;;5011955;28;20257;-61
2022/03/26 08:09:47;;;;;;;105.25;86.65;;;;;;;;;;5011758;28;20180;-62
2022/03/26 08:12:13;;;;;;;114.18;92.32;;;;;;;;;;5011343;28;20236;-61
2022/03/26 08:14:39;;;;;;;117.45;97.90;;;;;;;;;;5011612;28;20174;-60
2022/03/26 08:17:05;;;;;;;114.10;99.73;;;;;;;;;;5011932;28;20213;-59
2022/03/26 08:19:34;;;;;;;105.05;93.68;;;;;;;;;;5011396;28;20408;-59
2022/03/26 08:22:00;;;;;;;108.45;97.40;;;;;;;;;;5011653;28;20186;-62
2022/03/26 08:24:26;;;;;;;110.72;99.32;;;;;;;;;;5010387;28;20170;-62
2022/03/26 08:26:53;;;;;;;114.20;103.57;;;;;;;;;;5011117;28;20269;-61
2022/03/26 08:29:19;;;;;;;117.20;105.85;;;;;;;;;;5009918;28;20419;-59
2022/03/26 08:31:45;;;;;;;125.68;114.97;;;;;;;;;;5009726;28;20204;-60
2022/03/26 08:34:12;;;;;;;126.53;115.33;;;;;;;;;;5010872;28;20628;-59
2022/03/26 08:36:38;;;;;;;115.32;106.22;;;;;;;;;;5011402;28;20463;-58
2022/03/26 08:39:04;;;;;;;129.38;118.63;;;;;;;;;;5010536;28;20193;-59
2022/03/26 08:41:30;;;;;;;128.02;117.22;;;;;;;;;;5000951;28;20723;-60
2022/03/26 08:43:56;;;;;;;133.40;122.30;;;;;;;;;;5010241;28;20703;-60
2022/03/26 08:46:22;;;;;;;136.57;126.18;;;;;;;;;;5015559;28;20271;-60
2022/03/26 08:48:49;;;;;;;147.98;137.10;;;;;;;;;;5031292;28;20183;-55
2022/03/26 08:51:16;;;;;;;156.13;144.93;;;;;;;;;;5029706;28;20222;-62
2022/03/26 08:53:42;;;;;;;175.30;161.53;;;;;;;;;;5029796;28;20414;-61
2022/03/26 08:56:08;;;;;;;176.57;162.27;;;;;;;;;;5031080;28;20446;-62
2022/03/26 08:58:34;;;;;;;185.90;172.30;;;;;;;;;;5031402;28;20963;-61
2022/03/26 09:01:01;;;;;;;217.63;203.17;;;;;;;;;;5030903;28;20473;-61
2022/03/26 09:03:27;;;;;;;259.00;242.97;;;;;;;;;;5017425;28;20416;-61
2022/03/26 09:05:53;;;;;;;292.03;276.63;;;;;;;;;;5011077;28;20473;-59
2022/03/26 09:08:19;;;;;;;338.53;321.53;;;;;;;;;;5010926;28;20409;-57
2022/03/26 09:10:46;;;;;;;363.53;346.03;;;;;;;;;;5013081;28;20475;-61
2022/03/26 09:13:12;;;;;;;428.17;409.53;;;;;;;;;;5014830;28;20439;-61
2022/03/26 09:15:38;;;;;;;495.23;474.10;;;;;;;;;;5014958;28;20457;-62
2022/03/26 09:18:04;;;;;;;607.83;580.83;;;;;;;;;;5014407;28;20417;-62
2022/03/26 09:20:30;;;;;;;672.30;642.63;;;;;;;;;;5013621;28;20465;-62
2022/03/26 09:22:56;;;;;;;702.97;672.37;;;;;;;;;;5014931;28;20443;-60
2022/03/26 09:25:22;;;;;;;673.27;644.33;;;;;;;;;;5014859;28;20486;-60
2022/03/26 09:27:49;;;;;;;706.37;675.97;;;;;;;;;;5026079;28;20419;-62
2022/03/26 09:30:15;;;;;;;669.00;640.90;;;;;;;;;;5014478;28;20442;-61
2022/03/26 09:32:44;;;;;;;709.20;679.00;;;;;;;;;;5014552;28;20478;-62
2022/03/26 09:35:10;;;;;;;626.53;601.20;;;;;;;;;;5014496;28;20420;-59
2022/03/26 09:37:36;;;;;;;699.77;670.60;;;;;;;;;;5014306;28;20997;-62
2022/03/26 09:40:04;;;;;;;515.33;495.83;;;;;;;;;;5014231;28;20492;-61
2022/03/26 09:42:30;;;;;;;583.33;560.63;;;;;;;;;;5014332;28;20412;-62
2022/03/26 09:44:57;;;;;;;700.43;670.73;;;;;;;;;;5014474;28;20418;-61
2022/03/26 09:47:23;;;;;;;765.20;729.73;;;;;;;;;;5014436;28;20386;-60
2022/03/26 09:49:49;;;;;;;764.17;728.80;;;;;;;;;;5014146;28;20408;-62
2022/03/26 09:52:15;;;;;;;752.60;718.93;;;;;;;;;;5014004;28;20418;-61
2022/03/26 09:54:41;;;;;;;791.03;755.20;;;;;;;;;;5014304;28;20420;-62
2022/03/26 09:57:07;;;;;;;854.07;812.37;;;;;;;;;;5014225;28;20508;-61
2022/03/26 09:59:33;;;;;;;718.27;688.07;;;;;;;;;;5014138;28;20409;-62
2022/03/26 10:02:01;;;;;;;819.50;782.67;;;;;;;;;;5013738;28;20443;-62
2022/03/26 10:04:35;;;;;;;845.23;805.63;;;;;;;;;;5014261;28;20494;-62
2022/03/26 10:07:01;;;;;;;843.23;804.23;;;;;;;;;;5012458;28;20400;-62
2022/03/26 10:09:35;;;;;;;833.77;795.63;;;;;;;;;;5014000;28;20567;-62
2022/03/26 10:12:01;;;;;;;852.93;813.23;;;;;;;;;;5013477;28;20460;-62
2022/03/26 10:14:39;;;;;;;788.03;753.53;;;;;;;;;;5034549;22;20488;-65
2022/03/26 10:17:13;;;;;;;819.80;782.93;;;;;;;;;;5033262;28;20475;-65
2022/03/26 10:19:42;;;;;;;828.03;790.50;;;;;;;;;;5033635;28;20386;-65
2022/03/26 10:22:35;;;;;;;829.50;792.17;;;;;;;;;;5031907;28;20483;-65
2022/03/26 10:25:11;;;;;;;794.53;758.93;;;;;;;;;;5017402;28;20480;-65
2022/03/26 10:27:45;;;;;;;789.97;755.30;;;;;;;;;;5013971;28;20878;-65
2022/03/26 10:30:12;;;;;;;788.33;753.83;;;;;;;;;;5013470;28;20447;-65
2022/03/26 10:32:39;;;;;;;770.37;736.53;;;;;;;;;;5013468;28;20904;-65
2022/03/26 10:35:05;;;;;;;833.73;795.83;;;;;;;;;;5013518;28;20794;-65
2022/03/26 10:37:31;;;;;;;843.57;805.07;;;;;;;;;;5011934;28;20447;-72
2022/03/26 10:39:57;;;;;;;815.67;778.87;;;;;;;;;;5012762;28;20486;-65
2022/03/26 10:42:31;;;;;;;805.03;768.67;;;;;;;;;;5012695;28;20421;-65
2022/03/26 10:44:59;;;;;;;820.93;784.03;;;;;;;;;;5013395;28;20424;-64
2022/03/26 10:47:29;;;;;;;832.00;793.90;;;;;;;;;;5013387;28;20409;-64
2022/03/26 10:49:56;;;;;;;801.37;765.37;;;;;;;;;;5013301;28;20988;-63
2022/03/26 10:52:22;;;;;;;785.93;750.37;;;;;;;;;;5013016;28;20409;-64
2022/03/26 10:54:49;;;;;;;804.97;768.70;;;;;;;;;;5013118;28;20428;-63
2022/03/26 10:57:16;;;;;;;783.27;748.17;;;;;;;;;;5013162;28;20499;-63
2022/03/26 10:59:42;;;;;;;799.20;763.30;;;;;;;;;;4995309;28;20423;-64
2022/03/26 11:02:08;;;;;;;777.83;744.07;;;;;;;;;;5012801;28;20391;-64
2022/03/26 11:04:34;;;;;;;763.03;729.27;;;;;;;;;;5011678;28;20421;-63
2022/03/26 11:07:01;;;;;;;793.60;757.30;;;;;;;;;;5011028;28;20422;-63
2022/03/26 11:09:27;;;;;;;813.40;776.80;;;;;;;;;;5012026;28;20478;-64
2022/03/26 11:11:53;;;;;;;798.30;761.63;;;;;;;;;;5011110;28;20391;-63
2022/03/26 11:14:33;;;;;;;775.17;741.00;;;;;;;;;;5011755;28;20549;-62
2022/03/26 11:17:08;;;;;;;750.37;716.17;;;;;;;;;;5010908;28;20976;-63
2022/03/26 11:19:38;;;;;;;732.87;699.97;;;;;;;;;;5010209;28;20505;-64
2022/03/26 11:22:11;;;;;;;719.93;687.30;;;;;;;;;;5011993;28;20434;-63
2022/03/26 11:24:43;;;;;;;693.37;663.60;;;;;;;;;;5010036;28;20948;-62
2022/03/26 11:27:15;;;;;;;706.63;674.77;;;;;;;;;;5012785;28;20462;-63
2022/03/26 11:29:53;;;;;;;722.57;690.40;;;;;;;;;;5012680;28;20467;-63
2022/03/26 11:32:22;;;;;;;691.20;659.87;;;;;;;;;;5011742;28;21075;-64
2022/03/26 11:34:58;;;;;;;703.90;672.80;;;;;;;;;;5011489;28;20411;-64
2022/03/26 11:37:24;;;;;;;693.33;661.70;;;;;;;;;;5010849;28;20581;-64
2022/03/26 11:39:52;;;;;;;707.57;675.97;;;;;;;;;;5011453;28;20939;-64
2022/03/26 11:42:23;;;;;;;693.20;662.20;;;;;;;;;;5010416;28;20971;-64
2022/03/26 11:50:45;;;;;;;685.00;655.70;;;;;;;;;;4994070;28;20448;-62
2022/03/26 11:53:13;;;;;;;603.33;579.27;;;;;;;;;;5007344;28;20398;-63
2022/03/26 11:55:43;;;;;;;717.23;685.20;;;;;;;;;;5010406;28;20412;-63
2022/03/26 11:58:13;;;;;;;746.33;711.93;;;;;;;;;;5009807;28;20439;-63
2022/03/26 12:00:56;;;;;;;743.00;709.10;;;;;;;;;;5009529;28;20404;-63
2022/03/26 12:03:26;;;;;;;751.97;716.77;;;;;;;;;;5007436;28;20428;-63
2022/03/26 12:08:57;;;;;;;708.57;675.80;;;;;;;;;;4995145;28;20414;-62
2022/03/26 12:11:32;;;;;;;681.67;651.27;;;;;;;;;;5010832;28;20471;-62
2022/03/26 12:13:59;;;;;;;688.80;657.03;;;;;;;;;;5010535;28;20930;-63
2022/03/26 12:16:46;;;;;;;672.17;640.27;;;;;;;;;;4993703;28;20449;-63
2022/03/26 12:19:12;;;;;;;646.60;614.10;;;;;;;;;;4994432;28;20445;-62
2022/03/26 12:21:50;;;;;;;630.63;599.83;;;;;;;;;;5011095;28;20412;-62
2022/03/26 12:24:17;;;;;;;628.23;597.67;;;;;;;;;;5009646;28;20416;-62
2022/03/26 12:26:49;;;;;;;601.80;571.30;;;;;;;;;;5010953;28;20412;-63
2022/03/26 12:29:16;;;;;;;605.97;575.13;;;;;;;;;;5011115;28;20910;-63
2022/03/26 12:31:42;;;;;;;587.87;557.23;;;;;;;;;;4993141;28;20398;-63
2022/03/26 12:34:08;;;;;;;568.10;537.00;;;;;;;;;;5010546;28;20403;-63
2022/03/26 12:36:35;;;;;;;539.23;513.83;;;;;;;;;;5011045;28;20474;-63
2022/03/26 12:39:01;;;;;;;561.43;528.53;;;;;;;;;;5010882;28;20515;-63
2022/03/26 12:41:31;;;;;;;519.27;485.43;;;;;;;;;;5008494;28;20499;-63
2022/03/26 12:43:57;;;;;;;532.47;498.87;;;;;;;;;;5009843;28;20449;-63
2022/03/26 12:46:31;;;;;;;518.47;484.17;;;;;;;;;;5015453;28;20416;-63
2022/03/26 12:48:58;;;;;;;512.73;481.13;;;;;;;;;;5015579;28;20404;-63
2022/03/26 12:51:27;;;;;;;497.57;463.40;;;;;;;;;;5014154;28;20420;-63
2022/03/26 12:53:53;;;;;;;494.17;460.27;;;;;;;;;;5013573;28;20432;-63
2022/03/26 12:56:19;;;;;;;487.20;454.00;;;;;;;;;;5015093;28;20463;-63
2022/03/26 12:59:00;;;;;;;514.83;480.33;;;;;;;;;;5014987;28;20540;-63
2022/03/26 13:01:26;;;;;;;487.57;454.77;;;;;;;;;;5014691;28;20408;-64
2022/03/26 13:03:53;;;;;;;496.00;461.40;;;;;;;;;;5013489;28;20451;-64
2022/03/26 13:06:20;;;;;;;435.73;411.53;;;;;;;;;;5013481;28;21002;-64
2022/03/26 13:08:49;;;;;;;493.30;460.00;;;;;;;;;;5014857;28;20420;-64
2022/03/26 13:11:16;;;;;;;491.43;457.77;;;;;;;;;;5012952;28;20475;-66
2022/03/26 13:13:43;;;;;;;491.83;459.93;;;;;;;;;;5012563;28;20428;-63
2022/03/26 13:16:13;;;;;;;497.43;464.90;;;;;;;;;;5012857;28;20464;-63
2022/03/26 13:18:46;;;;;;;492.33;459.43;;;;;;;;;;5013240;28;20409;-64
2022/03/26 13:21:13;;;;;;;479.10;446.80;;;;;;;;;;5014050;28;20432;-63
2022/03/26 13:23:41;;;;;;;464.07;433.57;;;;;;;;;;5012565;28;20447;-63
2022/03/26 13:26:07;;;;;;;470.30;438.53;;;;;;;;;;5013342;28;20412;-63
2022/03/26 13:28:37;;;;;;;460.37;431.97;;;;;;;;;;5014462;28;20455;-63
2022/03/26 13:31:22;;;;;;;429.00;403.40;;;;;;;;;;5014311;28;20485;-63
2022/03/26 13:33:48;;;;;;;422.50;396.20;;;;;;;;;;5014503;28;20436;-64
2022/03/26 13:36:14;;;;;;;444.63;415.73;;;;;;;;;;5014186;28;20495;-64
2022/03/26 13:38:41;;;;;;;450.90;421.93;;;;;;;;;;5014612;28;20960;-64
2022/03/26 13:41:17;;;;;;;447.43;418.73;;;;;;;;;;5013790;28;20425;-64
2022/03/26 13:43:44;;;;;;;426.50;399.43;;;;;;;;;;5014213;28;20412;-64
2022/03/26 13:46:10;;;;;;;460.77;432.67;;;;;;;;;;5014080;28;20486;-64
2022/03/26 13:48:56;;;;;;;457.73;428.43;;;;;;;;;;5013922;28;20417;-64
2022/03/26 13:51:29;;;;;;;453.30;425.03;;;;;;;;;;5013920;28;20417;-64
2022/03/26 13:53:55;;;;;;;452.07;424.47;;;;;;;;;;5013486;28;20511;-64
2022/03/26 13:56:26;;;;;;;436.87;409.67;;;;;;;;;;5013424;28;20467;-64
2022/03/26 13:59:08;;;;;;;427.67;401.67;;;;;;;;;;5014443;28;20452;-65
2022/03/26 14:01:41;;;;;;;430.13;403.53;;;;;;;;;;5013983;28;20484;-65
2022/03/26 14:04:07;;;;;;;441.37;413.87;;;;;;;;;;5013830;28;20483;-65
2022/03/26 14:06:36;;;;;;;439.20;411.80;;;;;;;;;;5013745;28;20998;-65
2022/03/26 14:09:03;;;;;;;411.63;385.40;;;;;;;;;;5014056;28;20440;-65